Humidity-temperature Sensor

Selected Measurement Type: Air Temperature

 
Air Temperature [°C]     6 entries per hour
Showing data from 3/23/2015 (00:00:00 Z) to 3/16/2015 (00:01:00 Z)
Previous Next [ Day | 3-Days | 7-Days ]
First Last
Prev [ Day | 3-Days | 7-Days ] Next
First Last

Start Time:     :
End Time:     :     
Time (in GMT) :00 :50 :40 :30 :20 :10
Previous Next [ Day | 3-Days | 7-Days ]
First Last
Prev [ Day | 3-Days | 7-Days ] Next
First Last


123 => good data
MM => data is determined as missing
-- => data not received/configured
Back to Top Back to Top
3/23/2015 00:00 to 23:10 27.69 27.78 27.85 27.67 27.68 27.70
3/22/2015 23:00 to 22:10 27.58 27.63 27.69 27.60 27.59 27.63
3/22/2015 22:00 to 21:10 27.56 27.53 27.65 27.58 27.59 27.47
3/22/2015 21:00 to 20:10 27.46 27.45 27.53 27.45 27.64 27.58
3/22/2015 20:00 to 19:10 27.59 27.60 27.52 27.58 27.59 27.64
3/22/2015 19:00 to 18:10 27.65 27.61 27.69 27.73 27.69 27.69
3/22/2015 18:00 to 17:10 27.72 27.78 27.71 27.68 27.79 27.73
3/22/2015 17:00 to 16:10 27.67 27.86 27.80 27.48 27.89 27.84
3/22/2015 16:00 to 15:10 27.36 27.66 27.61 27.29 27.67 27.34
3/22/2015 15:00 to 14:10 27.36 27.25 27.18 27.14 27.09 27.13
3/22/2015 14:00 to 13:10 27.12 27.29 27.16 27.07 26.96 26.70
3/22/2015 13:00 to 12:10 26.70 26.66 26.64 26.68 26.42 26.15
3/22/2015 12:00 to 11:10 26.07 27.15 26.77 26.84 26.17 27.01
3/22/2015 11:00 to 10:10 27.02 27.22 27.12 27.23 27.19 27.19
3/22/2015 10:00 to 9:10 27.20 27.32 27.22 27.26 27.28 27.26
3/22/2015 09:00 to 8:10 27.36 27.39 27.39 27.47 27.30 27.39
3/22/2015 08:00 to 7:10 27.38 27.38 27.44 27.38 27.24 27.30
3/22/2015 07:00 to 6:10 27.26 27.13 27.23 27.26 27.40 27.50
3/22/2015 06:00 to 5:10 27.42 27.46 27.46 27.45 27.41 27.35
3/22/2015 05:00 to 4:10 27.21 27.28 27.44 27.22 27.43 27.57
3/22/2015 04:00 to 3:10 27.63 27.57 27.62 27.56 27.52 27.42
3/22/2015 03:00 to 2:10 27.12 27.04 26.93 26.88 27.01 26.94
3/22/2015 02:00 to 1:10 26.73 27.51 27.59 27.51 27.64 27.52
3/22/2015 01:00 to 0:10 27.44 27.53 27.56 27.50 27.52 27.46
3/22/2015 00:00 to 23:10 27.59 27.55 27.46 27.44 27.43 27.37
3/21/2015 23:00 to 22:10 27.40 27.60 27.32 27.50 27.43 27.42
3/21/2015 22:00 to 21:10 27.50 27.30 27.39 27.34 27.26 27.29
3/21/2015 21:00 to 20:10 27.31 27.36 27.41 27.46 27.27 27.30
3/21/2015 20:00 to 19:10 27.36 27.44 27.36 27.36 27.39 27.55
3/21/2015 19:00 to 18:10 27.31 27.51 27.50 27.42 27.50 27.49
3/21/2015 18:00 to 17:10 27.55 27.59 27.44 27.57 27.51 27.54
3/21/2015 17:00 to 16:10 27.61 27.60 27.59 27.66 27.64 27.65
3/21/2015 16:00 to 15:10 27.73 27.70 27.77 27.71 27.67 27.66
3/21/2015 15:00 to 14:10 27.21 26.94 26.89 26.80 26.75 26.80
3/21/2015 14:00 to 13:10 26.68 26.73 26.70 26.72 26.77 26.74
3/21/2015 13:00 to 12:10 26.75 26.75 26.78 26.77 26.74 26.73
3/21/2015 12:00 to 11:10 26.78 26.74 26.67 26.82 26.81 26.74
3/21/2015 11:00 to 10:10 26.83 26.88 26.84 26.88 26.85 26.88
3/21/2015 10:00 to 9:10 26.84 26.89 26.92 26.89 26.93 26.96
3/21/2015 09:00 to 8:10 27.07 26.97 27.03 27.12 26.99 27.05
3/21/2015 08:00 to 7:10 27.04 27.07 27.11 27.13 27.15 27.17
3/21/2015 07:00 to 6:10 27.21 27.17 27.17 27.25 27.23 27.23
3/21/2015 06:00 to 5:10 27.29 27.23 27.20 27.22 27.16 27.24
3/21/2015 05:00 to 4:10 27.19 27.23 27.23 27.22 27.19 27.34
3/21/2015 04:00 to 3:10 27.24 27.31 27.31 27.38 27.33 27.31
3/21/2015 03:00 to 2:10 27.36 27.30 27.37 27.37 27.38 27.39
3/21/2015 02:00 to 1:10 27.35 27.47 27.43 27.42 27.41 27.46
3/21/2015 01:00 to 0:10 27.42 27.44 27.37 27.57 27.50 27.48
3/21/2015 00:00 to 23:10 27.49 27.44 27.42 27.37 27.36 27.33
3/20/2015 23:00 to 22:10 27.29 27.42 27.31 27.33 27.31 27.28
3/20/2015 22:00 to 21:10 27.46 27.24 27.37 27.31 27.39 27.33
3/20/2015 21:00 to 20:10 27.36 27.37 27.34 27.36 27.35 27.34
3/20/2015 20:00 to 19:10 27.44 27.48 27.48 27.40 27.44 27.42
3/20/2015 19:00 to 18:10 27.47 27.42 27.47 27.49 27.46 27.36
3/20/2015 18:00 to 17:10 27.49 27.44 27.58 27.55 27.54 27.52
3/20/2015 17:00 to 16:10 27.29 27.60 27.65 27.57 27.67 27.65
3/20/2015 16:00 to 15:10 27.64 27.78 27.75 27.48 27.72 27.50
3/20/2015 15:00 to 14:10 27.38 27.22 27.03 26.89 26.81 26.73
3/20/2015 14:00 to 13:10 26.76 26.80 26.78 26.80 26.81 26.82
3/20/2015 13:00 to 12:10 26.74 26.72 26.67 26.67 26.67 26.74
3/20/2015 12:00 to 11:10 26.70 26.69 26.80 26.79 26.82 26.83
3/20/2015 11:00 to 10:10 26.84 26.89 26.87 26.89 26.89 26.88
3/20/2015 10:00 to 9:10 26.89 26.92 27.00 27.05 26.93 26.97
3/20/2015 09:00 to 8:10 26.94 26.96 27.02 27.07 27.12 27.04
3/20/2015 08:00 to 7:10 27.10 27.04 27.09 27.14 27.09 27.20
3/20/2015 07:00 to 6:10 27.10 27.18 27.19 27.13 27.16 27.22
3/20/2015 06:00 to 5:10 27.14 27.19 27.22 27.17 27.24 27.18
3/20/2015 05:00 to 4:10 27.12 27.22 27.27 27.19 27.16 27.27
3/20/2015 04:00 to 3:10 27.23 27.20 27.31 27.26 27.22 27.23
3/20/2015 03:00 to 2:10 27.28 27.33 27.30 27.36 27.35 27.36
3/20/2015 02:00 to 1:10 27.35 27.37 27.43 27.47 27.38 27.49
3/20/2015 01:00 to 0:10 27.38 27.28 27.43 27.36 27.45 27.31
3/20/2015 00:00 to 23:10 27.36 27.34 27.34 27.26 27.30 27.37
3/19/2015 23:00 to 22:10 27.30 27.39 27.32 27.37 27.33 27.36
3/19/2015 22:00 to 21:10 27.31 27.35 27.33 27.37 27.36 27.32
3/19/2015 21:00 to 20:10 27.39 27.36 27.33 27.34 27.28 27.23
3/19/2015 20:00 to 19:10 27.32 27.36 27.32 27.34 27.40 27.39
3/19/2015 19:00 to 18:10 27.34 27.46 27.48 27.35 27.36 27.33
3/19/2015 18:00 to 17:10 27.36 27.38 27.40 27.47 27.46 27.50
3/19/2015 17:00 to 16:10 27.46 27.48 27.49 27.56 27.57 26.93
3/19/2015 16:00 to 15:10 26.88 26.97 27.50 27.26 27.24 27.00
3/19/2015 15:00 to 14:10 27.01 26.71 26.69 26.69 26.59 26.57
3/19/2015 14:00 to 13:10 26.50 26.52 26.50 26.58 26.57 26.62
3/19/2015 13:00 to 12:10 26.66 26.63 26.68 26.62 26.61 26.54
3/19/2015 12:00 to 11:10 26.67 26.60 26.63 26.60 26.62 26.63
3/19/2015 11:00 to 10:10 26.56 26.57 26.66 26.70 26.67 26.68
3/19/2015 10:00 to 9:10 26.61 26.68 26.65 26.74 26.78 26.85
3/19/2015 09:00 to 8:10 26.82 26.81 26.87 26.89 26.84 26.84
3/19/2015 08:00 to 7:10 26.95 26.95 27.00 27.07 27.00 27.00
3/19/2015 07:00 to 6:10 27.01 27.03 27.05 27.06 27.04 27.09
3/19/2015 06:00 to 5:10 27.10 27.05 27.07 27.06 27.10 27.16
3/19/2015 05:00 to 4:10 27.14 27.19 27.23 27.15 27.17 27.19
3/19/2015 04:00 to 3:10 27.14 27.13 27.18 27.16 27.06 27.12
3/19/2015 03:00 to 2:10 27.26 27.22 27.16 27.16 27.15 27.15
3/19/2015 02:00 to 1:10 -- -- -- -- -- --
3/19/2015 01:00 to 0:10 27.29 27.13 27.23 27.12 27.23 27.20
3/19/2015 00:00 to 23:10 27.27 27.16 27.27 27.14 27.16 27.20
3/18/2015 23:00 to 22:10 27.17 27.22 27.31 27.24 27.29 27.18
3/18/2015 22:00 to 21:10 27.34 27.25 27.25 27.33 27.34 27.27
3/18/2015 21:00 to 20:10 27.32 27.28 27.17 27.24 27.24 27.24
3/18/2015 20:00 to 19:10 27.35 27.32 27.22 27.27 27.28 27.39
3/18/2015 19:00 to 18:10 27.37 27.37 27.38 27.38 27.47 27.37
3/18/2015 18:00 to 17:10 27.38 27.44 27.46 27.58 27.47 27.54
3/18/2015 17:00 to 16:10 27.62 27.53 27.58 27.66 27.67 27.63
3/18/2015 16:00 to 15:10 27.68 27.66 27.17 27.60 27.52 27.39
3/18/2015 15:00 to 14:10 27.26 27.11 26.97 26.87 26.86 26.79
3/18/2015 14:00 to 13:10 26.88 26.82 26.79 26.90 26.77 26.65
3/18/2015 13:00 to 12:10 26.70 26.71 26.85 26.74 26.78 26.86
3/18/2015 12:00 to 11:10 26.79 26.81 26.84 26.87 26.78 26.82
3/18/2015 11:00 to 10:10 26.80 26.84 26.75 26.84 26.89 26.93
3/18/2015 10:00 to 9:10 26.99 26.95 26.92 26.98 26.95 27.04
3/18/2015 09:00 to 8:10 26.99 27.09 26.95 27.02 26.95 26.99
3/18/2015 08:00 to 7:10 27.02 27.01 27.09 27.10 27.15 27.16
3/18/2015 07:00 to 6:10 27.26 27.25 27.20 27.24 27.29 27.26
3/18/2015 06:00 to 5:10 27.25 27.22 27.40 27.28 27.34 27.32
3/18/2015 05:00 to 4:10 27.35 27.28 27.30 27.23 27.21 27.19
3/18/2015 04:00 to 3:10 27.13 27.17 27.25 27.24 27.20 27.21
3/18/2015 03:00 to 2:10 27.16 27.23 27.27 27.18 27.28 27.36
3/18/2015 02:00 to 1:10 27.27 27.27 27.32 27.32 27.37 27.24
3/18/2015 01:00 to 0:10 27.27 27.24 27.20 27.23 27.19 27.23
3/18/2015 00:00 to 23:10 27.23 27.20 27.29 27.23 27.17 27.14
3/17/2015 23:00 to 22:10 27.15 27.18 27.09 27.18 27.21 27.12
3/17/2015 22:00 to 21:10 27.19 27.24 27.09 27.05 27.04 27.06
3/17/2015 21:00 to 20:10 27.14 27.00 27.13 27.13 27.01 27.20
3/17/2015 20:00 to 19:10 27.02 27.12 27.18 27.15 27.13 27.11
3/17/2015 19:00 to 18:10 27.11 27.26 27.22 27.34 27.27 27.22
3/17/2015 18:00 to 17:10 27.28 27.34 27.32 27.43 27.39 27.55
3/17/2015 17:00 to 16:10 27.61 27.64 27.76 27.79 27.66 27.83
3/17/2015 16:00 to 15:10 27.81 27.63 27.80 27.61 27.71 27.26
3/17/2015 15:00 to 14:10 26.87 26.68 26.46 26.46 26.47 26.37
3/17/2015 14:00 to 13:10 26.44 26.39 26.43 26.43 26.46 26.44
3/17/2015 13:00 to 12:10 26.44 26.52 26.51 26.48 26.48 26.50
3/17/2015 12:00 to 11:10 26.52 26.55 26.53 26.64 26.56 26.63
3/17/2015 11:00 to 10:10 26.68 26.66 26.73 26.81 26.78 26.85
3/17/2015 10:00 to 9:10 26.86 26.82 26.89 26.84 26.90 26.93
3/17/2015 09:00 to 8:10 26.95 26.95 26.93 27.05 26.94 26.92
3/17/2015 08:00 to 7:10 26.98 26.95 26.94 26.94 26.97 27.02
3/17/2015 07:00 to 6:10 27.02 27.00 27.02 27.02 27.06 27.01
3/17/2015 06:00 to 5:10 27.02 27.05 27.15 27.13 27.14 27.07
3/17/2015 05:00 to 4:10 27.21 27.19 27.20 27.24 27.20 27.21
3/17/2015 04:00 to 3:10 27.18 27.14 27.16 27.13 27.07 27.06
3/17/2015 03:00 to 2:10 27.12 27.04 27.11 26.99 27.07 26.97
3/17/2015 02:00 to 1:10 26.99 27.12 27.15 27.21 27.17 27.02
3/17/2015 01:00 to 0:10 27.23 27.17 27.06 27.07 27.05 27.05
3/17/2015 00:00 to 23:10 26.97 26.94 26.89 26.87 26.88 26.86
3/16/2015 23:00 to 22:10 26.80 26.78 26.85 26.89 26.89 26.88
3/16/2015 22:00 to 21:10 26.87 26.88 26.97 26.82 26.83 26.81
3/16/2015 21:00 to 20:10 26.92 26.70 26.72 26.71 26.64 26.69
3/16/2015 20:00 to 19:10 26.77 26.68 26.64 26.65 26.76 26.75
3/16/2015 19:00 to 18:10 26.68 26.69 26.79 26.83 26.83 26.79
3/16/2015 18:00 to 17:10 26.84 27.16 26.93 26.99 27.09 27.09
3/16/2015 17:00 to 16:10 27.09 27.19 26.96 27.23 27.20 27.21
3/16/2015 16:00 to 15:10 27.27 26.94 26.68 27.09 26.60 26.54
3/16/2015 15:00 to 14:10 26.54 26.40 26.50 26.47 26.51 26.48
3/16/2015 14:00 to 13:10 26.45 26.46 26.41 26.35 26.36 26.46
3/16/2015 13:00 to 12:10 26.28 26.31 26.26 26.27 26.21 26.23
3/16/2015 12:00 to 11:10 26.35 26.20 26.28 26.38 26.33 26.27
3/16/2015 11:00 to 10:10 26.31 26.31 26.27 26.32 26.39 26.34
3/16/2015 10:00 to 9:10 26.39 26.42 26.44 26.42 26.42 26.54
3/16/2015 09:00 to 8:10 26.46 26.47 26.50 26.36 26.54 26.57
3/16/2015 08:00 to 7:10 26.50 26.47 26.58 26.60 26.56 26.62
3/16/2015 07:00 to 6:10 26.68 26.60 26.65 26.71 26.77 26.76
3/16/2015 06:00 to 5:10 26.72 26.80 26.74 26.71 26.75 26.81
3/16/2015 05:00 to 4:10 26.79 26.74 26.81 26.87 26.81 26.80
3/16/2015 04:00 to 3:10 26.81 26.80 26.86 26.82 26.76 26.86
3/16/2015 03:00 to 2:10 26.83 26.81 26.79 26.90 26.84 26.84
3/16/2015 02:00 to 1:10 26.91 26.90 26.99 26.88 26.89 26.99
3/16/2015 01:00 to 0:10 27.03 27.06 27.01 27.02 26.99 26.98